sensor_id;sensor_type;location;lat;lon;timestamp;P1;durP1;ratioP1;P2;durP2;ratioP2
38683;SDS011;24910;53.248;-6.134;2023-04-09T00:00:07;10.93;;;3.67;;
38683;SDS011;24910;53.248;-6.134;2023-04-09T00:02:40;7.97;;;4.13;;
38683;SDS011;24910;53.248;-6.134;2023-04-09T00:05:09;12.68;;;3.63;;
38683;SDS011;24910;53.248;-6.134;2023-04-09T00:07:38;8.35;;;3.97;;
38683;SDS011;24910;53.248;-6.134;2023-04-09T00:10:10;9.93;;;3.80;;
38683;SDS011;24910;53.248;-6.134;2023-04-09T00:12:39;9.50;;;3.80;;
38683;SDS011;24910;53.248;-6.134;2023-04-09T00:15:09;9.98;;;4.28;;
38683;SDS011;24910;53.248;-6.134;2023-04-09T00:17:54;11.30;;;4.55;;
38683;SDS011;24910;53.248;-6.134;2023-04-09T00:20:23;6.35;;;3.85;;
38683;SDS011;24910;53.248;-6.134;2023-04-09T00:22:52;11.18;;;4.50;;
38683;SDS011;24910;53.248;-6.134;2023-04-09T00:25:22;12.40;;;4.45;;
38683;SDS011;24910;53.248;-6.134;2023-04-09T00:27:51;12.40;;;4.50;;
38683;SDS011;24910;53.248;-6.134;2023-04-09T00:30:22;11.73;;;4.80;;
38683;SDS011;24910;53.248;-6.134;2023-04-09T00:32:51;18.20;;;5.63;;
38683;SDS011;24910;53.248;-6.134;2023-04-09T00:35:20;22.30;;;5.32;;
38683;SDS011;24910;53.248;-6.134;2023-04-09T00:37:50;16.13;;;5.78;;
38683;SDS011;24910;53.248;-6.134;2023-04-09T00:40:19;13.98;;;5.40;;
38683;SDS011;24910;53.248;-6.134;2023-04-09T00:42:48;11.57;;;5.32;;
38683;SDS011;24910;53.248;-6.134;2023-04-09T00:45:17;15.93;;;5.38;;
38683;SDS011;24910;53.248;-6.134;2023-04-09T00:47:47;15.20;;;5.88;;
38683;SDS011;24910;53.248;-6.134;2023-04-09T00:50:17;17.67;;;5.95;;
38683;SDS011;24910;53.248;-6.134;2023-04-09T00:52:46;17.17;;;5.57;;
38683;SDS011;24910;53.248;-6.134;2023-04-09T00:55:15;18.50;;;5.72;;
38683;SDS011;24910;53.248;-6.134;2023-04-09T00:57:46;20.45;;;7.03;;
38683;SDS011;24910;53.248;-6.134;2023-04-09T01:00:15;18.63;;;5.97;;
38683;SDS011;24910;53.248;-6.134;2023-04-09T01:02:45;22.00;;;6.63;;
38683;SDS011;24910;53.248;-6.134;2023-04-09T01:05:17;17.17;;;6.10;;
38683;SDS011;24910;53.248;-6.134;2023-04-09T01:07:52;16.25;;;6.22;;
38683;SDS011;24910;53.248;-6.134;2023-04-09T01:10:30;16.52;;;5.80;;
38683;SDS011;24910;53.248;-6.134;2023-04-09T01:13:06;12.73;;;6.13;;
38683;SDS011;24910;53.248;-6.134;2023-04-09T01:15:41;12.70;;;5.85;;
38683;SDS011;24910;53.248;-6.134;2023-04-09T01:18:20;18.23;;;6.00;;
38683;SDS011;24910;53.248;-6.134;2023-04-09T01:20:54;17.88;;;6.22;;
38683;SDS011;24910;53.248;-6.134;2023-04-09T01:23:28;17.75;;;6.30;;
38683;SDS011;24910;53.248;-6.134;2023-04-09T01:26:06;15.07;;;5.80;;
38683;SDS011;24910;53.248;-6.134;2023-04-09T01:28:53;19.83;;;5.65;;
38683;SDS011;24910;53.248;-6.134;2023-04-09T01:31:26;14.65;;;5.35;;
38683;SDS011;24910;53.248;-6.134;2023-04-09T01:33:58;16.35;;;5.30;;
38683;SDS011;24910;53.248;-6.134;2023-04-09T01:36:28;16.52;;;6.03;;
38683;SDS011;24910;53.248;-6.134;2023-04-09T01:38:59;16.88;;;5.20;;
38683;SDS011;24910;53.248;-6.134;2023-04-09T01:41:30;15.85;;;5.10;;
38683;SDS011;24910;53.248;-6.134;2023-04-09T01:44:02;14.18;;;4.90;;
38683;SDS011;24910;53.248;-6.134;2023-04-09T01:46:33;15.35;;;5.50;;
38683;SDS011;24910;53.248;-6.134;2023-04-09T01:49:02;15.77;;;5.30;;
38683;SDS011;24910;53.248;-6.134;2023-04-09T01:51:35;13.70;;;4.40;;
38683;SDS011;24910;53.248;-6.134;2023-04-09T01:54:04;17.95;;;5.28;;
38683;SDS011;24910;53.248;-6.134;2023-04-09T01:56:40;11.10;;;4.55;;
38683;SDS011;24910;53.248;-6.134;2023-04-09T01:59:11;17.00;;;4.70;;
38683;SDS011;24910;53.248;-6.134;2023-04-09T02:01:43;16.27;;;4.65;;
38683;SDS011;24910;53.248;-6.134;2023-04-09T02:04:16;15.75;;;4.72;;
38683;SDS011;24910;53.248;-6.134;2023-04-09T02:06:52;20.33;;;4.68;;
38683;SDS011;24910;53.248;-6.134;2023-04-09T02:09:26;21.17;;;4.50;;
38683;SDS011;24910;53.248;-6.134;2023-04-09T02:11:58;16.33;;;4.60;;
38683;SDS011;24910;53.248;-6.134;2023-04-09T02:14:32;13.70;;;5.05;;
38683;SDS011;24910;53.248;-6.134;2023-04-09T02:17:01;21.77;;;4.82;;
38683;SDS011;24910;53.248;-6.134;2023-04-09T02:19:40;7.95;;;3.95;;
38683;SDS011;24910;53.248;-6.134;2023-04-09T02:22:10;15.93;;;4.93;;
38683;SDS011;24910;53.248;-6.134;2023-04-09T02:24:39;17.90;;;4.40;;
38683;SDS011;24910;53.248;-6.134;2023-04-09T02:27:09;17.60;;;4.90;;
38683;SDS011;24910;53.248;-6.134;2023-04-09T02:29:39;17.17;;;4.47;;
38683;SDS011;24910;53.248;-6.134;2023-04-09T02:32:08;8.65;;;3.90;;
38683;SDS011;24910;53.248;-6.134;2023-04-09T02:34:37;17.05;;;4.40;;
38683;SDS011;24910;53.248;-6.134;2023-04-09T02:37:06;12.63;;;3.63;;
38683;SDS011;24910;53.248;-6.134;2023-04-09T02:39:35;11.50;;;4.50;;
38683;SDS011;24910;53.248;-6.134;2023-04-09T02:42:04;14.68;;;4.32;;
38683;SDS011;24910;53.248;-6.134;2023-04-09T02:44:34;17.35;;;4.35;;
38683;SDS011;24910;53.248;-6.134;2023-04-09T02:47:05;13.15;;;4.20;;
38683;SDS011;24910;53.248;-6.134;2023-04-09T02:49:36;15.10;;;4.35;;
38683;SDS011;24910;53.248;-6.134;2023-04-09T02:52:05;18.73;;;4.70;;
38683;SDS011;24910;53.248;-6.134;2023-04-09T02:54:34;22.05;;;4.85;;
38683;SDS011;24910;53.248;-6.134;2023-04-09T02:57:03;18.02;;;5.13;;
38683;SDS011;24910;53.248;-6.134;2023-04-09T02:59:32;19.95;;;5.00;;
38683;SDS011;24910;53.248;-6.134;2023-04-09T03:02:02;18.52;;;6.28;;
38683;SDS011;24910;53.248;-6.134;2023-04-09T03:04:32;18.83;;;5.20;;
38683;SDS011;24910;53.248;-6.134;2023-04-09T03:07:01;19.67;;;5.50;;
38683;SDS011;24910;53.248;-6.134;2023-04-09T03:09:30;13.82;;;5.15;;
38683;SDS011;24910;53.248;-6.134;2023-04-09T03:11:59;16.92;;;5.50;;
38683;SDS011;24910;53.248;-6.134;2023-04-09T03:14:29;16.95;;;4.95;;
38683;SDS011;24910;53.248;-6.134;2023-04-09T03:17:01;15.38;;;5.25;;
38683;SDS011;24910;53.248;-6.134;2023-04-09T03:19:30;17.05;;;5.43;;
38683;SDS011;24910;53.248;-6.134;2023-04-09T03:22:01;28.17;;;6.35;;
38683;SDS011;24910;53.248;-6.134;2023-04-09T03:24:31;21.88;;;6.95;;
38683;SDS011;24910;53.248;-6.134;2023-04-09T03:27:03;22.88;;;7.70;;
38683;SDS011;24910;53.248;-6.134;2023-04-09T03:29:33;40.72;;;12.57;;
38683;SDS011;24910;53.248;-6.134;2023-04-09T03:32:02;49.35;;;15.88;;
38683;SDS011;24910;53.248;-6.134;2023-04-09T03:34:32;59.08;;;17.98;;
38683;SDS011;24910;53.248;-6.134;2023-04-09T03:37:01;40.23;;;13.33;;
38683;SDS011;24910;53.248;-6.134;2023-04-09T03:39:31;58.08;;;18.88;;
38683;SDS011;24910;53.248;-6.134;2023-04-09T03:42:00;56.33;;;20.50;;
38683;SDS011;24910;53.248;-6.134;2023-04-09T03:44:39;60.38;;;23.67;;
38683;SDS011;24910;53.248;-6.134;2023-04-09T03:47:12;50.47;;;23.23;;
38683;SDS011;24910;53.248;-6.134;2023-04-09T03:49:43;51.35;;;22.08;;
38683;SDS011;24910;53.248;-6.134;2023-04-09T03:52:23;48.53;;;23.02;;
38683;SDS011;24910;53.248;-6.134;2023-04-09T03:54:59;50.92;;;24.48;;
38683;SDS011;24910;53.248;-6.134;2023-04-09T03:59:59;60.90;;;29.95;;
38683;SDS011;24910;53.248;-6.134;2023-04-09T04:02:37;59.67;;;33.53;;
38683;SDS011;24910;53.248;-6.134;2023-04-09T04:05:10;52.25;;;25.05;;
38683;SDS011;24910;53.248;-6.134;2023-04-09T04:07:44;49.22;;;23.00;;
38683;SDS011;24910;53.248;-6.134;2023-04-09T04:10:18;52.15;;;21.40;;
38683;SDS011;24910;53.248;-6.134;2023-04-09T04:12:47;47.40;;;18.13;;
38683;SDS011;24910;53.248;-6.134;2023-04-09T04:15:38;31.73;;;13.82;;
38683;SDS011;24910;53.248;-6.134;2023-04-09T04:18:10;22.92;;;9.00;;
38683;SDS011;24910;53.248;-6.134;2023-04-09T04:20:50;26.27;;;9.43;;
38683;SDS011;24910;53.248;-6.134;2023-04-09T04:23:19;29.87;;;7.57;;
38683;SDS011;24910;53.248;-6.134;2023-04-09T04:25:57;25.60;;;8.43;;
38683;SDS011;24910;53.248;-6.134;2023-04-09T04:28:31;27.67;;;10.80;;
38683;SDS011;24910;53.248;-6.134;2023-04-09T04:31:01;28.15;;;11.40;;
38683;SDS011;24910;53.248;-6.134;2023-04-09T04:33:32;28.38;;;10.50;;
38683;SDS011;24910;53.248;-6.134;2023-04-09T04:36:06;28.80;;;9.75;;
38683;SDS011;24910;53.248;-6.134;2023-04-09T04:38:40;21.92;;;9.63;;
38683;SDS011;24910;53.248;-6.134;2023-04-09T04:41:18;20.77;;;7.38;;
38683;SDS011;24910;53.248;-6.134;2023-04-09T04:43:54;17.75;;;6.68;;
38683;SDS011;24910;53.248;-6.134;2023-04-09T04:46:24;25.80;;;6.70;;
38683;SDS011;24910;53.248;-6.134;2023-04-09T04:48:53;22.13;;;6.15;;
38683;SDS011;24910;53.248;-6.134;2023-04-09T04:51:24;24.05;;;6.05;;
38683;SDS011;24910;53.248;-6.134;2023-04-09T04:54:09;17.83;;;5.72;;
38683;SDS011;24910;53.248;-6.134;2023-04-09T04:56:46;18.48;;;5.50;;
38683;SDS011;24910;53.248;-6.134;2023-04-09T04:59:28;22.27;;;6.60;;
38683;SDS011;24910;53.248;-6.134;2023-04-09T05:02:01;20.65;;;5.95;;
38683;SDS011;24910;53.248;-6.134;2023-04-09T05:04:37;20.80;;;6.38;;
38683;SDS011;24910;53.248;-6.134;2023-04-09T05:07:11;23.02;;;5.88;;
38683;SDS011;24910;53.248;-6.134;2023-04-09T05:09:50;25.42;;;6.03;;
38683;SDS011;24910;53.248;-6.134;2023-04-09T05:12:19;19.27;;;5.97;;
38683;SDS011;24910;53.248;-6.134;2023-04-09T05:14:50;24.98;;;6.20;;
38683;SDS011;24910;53.248;-6.134;2023-04-09T05:17:19;20.83;;;6.45;;
38683;SDS011;24910;53.248;-6.134;2023-04-09T05:19:50;25.05;;;7.28;;
38683;SDS011;24910;53.248;-6.134;2023-04-09T05:22:26;24.08;;;6.85;;
38683;SDS011;24910;53.248;-6.134;2023-04-09T05:24:55;25.98;;;6.70;;
38683;SDS011;24910;53.248;-6.134;2023-04-09T05:27:25;23.08;;;7.10;;
38683;SDS011;24910;53.248;-6.134;2023-04-09T05:29:59;19.10;;;6.38;;
38683;SDS011;24910;53.248;-6.134;2023-04-09T05:32:28;31.23;;;6.75;;
38683;SDS011;24910;53.248;-6.134;2023-04-09T05:34:58;21.35;;;6.88;;
38683;SDS011;24910;53.248;-6.134;2023-04-09T05:37:30;26.85;;;7.70;;
38683;SDS011;24910;53.248;-6.134;2023-04-09T05:39:59;32.40;;;7.80;;
38683;SDS011;24910;53.248;-6.134;2023-04-09T05:42:30;23.75;;;7.88;;
38683;SDS011;24910;53.248;-6.134;2023-04-09T05:45:06;32.95;;;7.97;;
38683;SDS011;24910;53.248;-6.134;2023-04-09T05:47:38;24.02;;;8.30;;
38683;SDS011;24910;53.248;-6.134;2023-04-09T05:50:16;24.13;;;7.35;;
38683;SDS011;24910;53.248;-6.134;2023-04-09T05:52:51;27.73;;;8.35;;
38683;SDS011;24910;53.248;-6.134;2023-04-09T05:55:21;29.65;;;8.18;;
38683;SDS011;24910;53.248;-6.134;2023-04-09T05:57:55;31.88;;;7.75;;
38683;SDS011;24910;53.248;-6.134;2023-04-09T06:00:25;27.05;;;7.93;;
38683;SDS011;24910;53.248;-6.134;2023-04-09T06:02:55;30.92;;;8.77;;
38683;SDS011;24910;53.248;-6.134;2023-04-09T06:05:26;34.75;;;9.00;;
38683;SDS011;24910;53.248;-6.134;2023-04-09T06:07:57;33.88;;;9.18;;
38683;SDS011;24910;53.248;-6.134;2023-04-09T06:10:26;33.78;;;9.60;;
38683;SDS011;24910;53.248;-6.134;2023-04-09T06:12:55;30.83;;;9.15;;
38683;SDS011;24910;53.248;-6.134;2023-04-09T06:15:27;38.67;;;9.57;;
38683;SDS011;24910;53.248;-6.134;2023-04-09T06:17:56;28.80;;;8.80;;
38683;SDS011;24910;53.248;-6.134;2023-04-09T06:20:25;33.47;;;9.57;;
38683;SDS011;24910;53.248;-6.134;2023-04-09T06:22:54;31.55;;;9.98;;
38683;SDS011;24910;53.248;-6.134;2023-04-09T06:25:25;29.60;;;9.80;;
38683;SDS011;24910;53.248;-6.134;2023-04-09T06:27:54;26.20;;;8.93;;
38683;SDS011;24910;53.248;-6.134;2023-04-09T06:30:25;37.50;;;10.25;;
38683;SDS011;24910;53.248;-6.134;2023-04-09T06:32:54;23.95;;;9.00;;
38683;SDS011;24910;53.248;-6.134;2023-04-09T06:35:23;26.90;;;9.45;;
38683;SDS011;24910;53.248;-6.134;2023-04-09T06:37:52;28.63;;;9.10;;
38683;SDS011;24910;53.248;-6.134;2023-04-09T06:40:23;25.80;;;9.32;;
38683;SDS011;24910;53.248;-6.134;2023-04-09T06:42:52;26.17;;;9.25;;
38683;SDS011;24910;53.248;-6.134;2023-04-09T06:45:28;28.52;;;8.98;;
38683;SDS011;24910;53.248;-6.134;2023-04-09T06:47:57;26.42;;;9.32;;
38683;SDS011;24910;53.248;-6.134;2023-04-09T06:50:29;25.40;;;8.65;;
38683;SDS011;24910;53.248;-6.134;2023-04-09T06:52:58;24.92;;;8.68;;
38683;SDS011;24910;53.248;-6.134;2023-04-09T06:55:29;23.73;;;8.65;;
38683;SDS011;24910;53.248;-6.134;2023-04-09T06:57:59;27.38;;;9.25;;
38683;SDS011;24910;53.248;-6.134;2023-04-09T07:00:29;24.80;;;8.77;;
38683;SDS011;24910;53.248;-6.134;2023-04-09T07:02:59;26.55;;;9.00;;
38683;SDS011;24910;53.248;-6.134;2023-04-09T07:05:29;31.10;;;9.15;;
38683;SDS011;24910;53.248;-6.134;2023-04-09T07:07:59;34.33;;;10.10;;
38683;SDS011;24910;53.248;-6.134;2023-04-09T07:10:30;28.95;;;9.80;;
38683;SDS011;24910;53.248;-6.134;2023-04-09T07:12:59;28.85;;;10.20;;
38683;SDS011;24910;53.248;-6.134;2023-04-09T07:15:28;34.05;;;10.60;;
38683;SDS011;24910;53.248;-6.134;2023-04-09T07:17:58;32.25;;;10.35;;
38683;SDS011;24910;53.248;-6.134;2023-04-09T07:20:30;29.90;;;8.95;;
38683;SDS011;24910;53.248;-6.134;2023-04-09T07:23:00;30.65;;;9.25;;
38683;SDS011;24910;53.248;-6.134;2023-04-09T07:25:31;30.35;;;9.63;;
38683;SDS011;24910;53.248;-6.134;2023-04-09T07:28:00;25.17;;;9.77;;
38683;SDS011;24910;53.248;-6.134;2023-04-09T07:30:29;34.33;;;9.82;;
38683;SDS011;24910;53.248;-6.134;2023-04-09T07:32:59;27.73;;;9.77;;
38683;SDS011;24910;53.248;-6.134;2023-04-09T07:35:28;34.05;;;8.75;;
38683;SDS011;24910;53.248;-6.134;2023-04-09T07:37:58;26.67;;;9.45;;
38683;SDS011;24910;53.248;-6.134;2023-04-09T07:40:27;28.70;;;9.98;;
38683;SDS011;24910;53.248;-6.134;2023-04-09T07:42:58;30.98;;;9.57;;
38683;SDS011;24910;53.248;-6.134;2023-04-09T07:45:27;28.15;;;9.38;;
38683;SDS011;24910;53.248;-6.134;2023-04-09T07:47:56;25.65;;;9.50;;
38683;SDS011;24910;53.248;-6.134;2023-04-09T07:50:25;28.40;;;9.45;;
38683;SDS011;24910;53.248;-6.134;2023-04-09T07:52:54;30.55;;;9.88;;
38683;SDS011;24910;53.248;-6.134;2023-04-09T07:55:26;25.92;;;9.95;;
38683;SDS011;24910;53.248;-6.134;2023-04-09T07:57:55;32.25;;;9.95;;
38683;SDS011;24910;53.248;-6.134;2023-04-09T08:00:26;23.60;;;9.73;;
38683;SDS011;24910;53.248;-6.134;2023-04-09T08:02:55;30.48;;;10.60;;
38683;SDS011;24910;53.248;-6.134;2023-04-09T08:05:27;25.58;;;10.02;;
38683;SDS011;24910;53.248;-6.134;2023-04-09T08:07:57;24.17;;;9.02;;
38683;SDS011;24910;53.248;-6.134;2023-04-09T08:10:26;27.67;;;9.25;;
38683;SDS011;24910;53.248;-6.134;2023-04-09T08:12:55;28.63;;;9.52;;
38683;SDS011;24910;53.248;-6.134;2023-04-09T08:15:26;27.65;;;10.30;;
38683;SDS011;24910;53.248;-6.134;2023-04-09T08:17:55;27.35;;;9.88;;
38683;SDS011;24910;53.248;-6.134;2023-04-09T08:20:24;27.70;;;10.13;;
38683;SDS011;24910;53.248;-6.134;2023-04-09T08:22:54;26.38;;;9.30;;
38683;SDS011;24910;53.248;-6.134;2023-04-09T08:25:23;28.00;;;9.68;;
38683;SDS011;24910;53.248;-6.134;2023-04-09T08:27:53;24.98;;;9.77;;
38683;SDS011;24910;53.248;-6.134;2023-04-09T08:30:28;29.90;;;10.48;;
38683;SDS011;24910;53.248;-6.134;2023-04-09T08:33:00;30.67;;;10.45;;
38683;SDS011;24910;53.248;-6.134;2023-04-09T08:35:32;20.50;;;9.60;;
38683;SDS011;24910;53.248;-6.134;2023-04-09T08:38:01;30.33;;;10.65;;
38683;SDS011;24910;53.248;-6.134;2023-04-09T08:40:33;30.83;;;10.35;;
38683;SDS011;24910;53.248;-6.134;2023-04-09T08:43:03;24.30;;;9.93;;
38683;SDS011;24910;53.248;-6.134;2023-04-09T08:45:35;28.13;;;9.52;;
38683;SDS011;24910;53.248;-6.134;2023-04-09T08:48:07;25.30;;;9.68;;
38683;SDS011;24910;53.248;-6.134;2023-04-09T08:50:38;27.05;;;11.18;;
38683;SDS011;24910;53.248;-6.134;2023-04-09T08:53:07;22.27;;;10.23;;
38683;SDS011;24910;53.248;-6.134;2023-04-09T08:55:38;26.27;;;9.43;;
38683;SDS011;24910;53.248;-6.134;2023-04-09T08:58:07;21.65;;;9.88;;
38683;SDS011;24910;53.248;-6.134;2023-04-09T09:00:38;19.98;;;9.48;;
38683;SDS011;24910;53.248;-6.134;2023-04-09T09:03:07;24.67;;;10.43;;
38683;SDS011;24910;53.248;-6.134;2023-04-09T09:05:39;25.73;;;9.90;;
38683;SDS011;24910;53.248;-6.134;2023-04-09T09:08:09;23.98;;;10.07;;
38683;SDS011;24910;53.248;-6.134;2023-04-09T09:10:49;25.83;;;10.20;;
38683;SDS011;24910;53.248;-6.134;2023-04-09T09:13:20;28.98;;;10.20;;
38683;SDS011;24910;53.248;-6.134;2023-04-09T09:15:53;29.23;;;9.52;;
38683;SDS011;24910;53.248;-6.134;2023-04-09T09:18:39;21.27;;;9.50;;
38683;SDS011;24910;53.248;-6.134;2023-04-09T09:21:09;29.43;;;10.23;;
38683;SDS011;24910;53.248;-6.134;2023-04-09T09:23:39;26.77;;;10.05;;
38683;SDS011;24910;53.248;-6.134;2023-04-09T09:26:12;26.55;;;10.02;;
38683;SDS011;24910;53.248;-6.134;2023-04-09T09:28:42;27.50;;;10.60;;
38683;SDS011;24910;53.248;-6.134;2023-04-09T09:31:14;26.85;;;11.27;;
38683;SDS011;24910;53.248;-6.134;2023-04-09T09:33:45;26.02;;;10.50;;
38683;SDS011;24910;53.248;-6.134;2023-04-09T09:36:14;25.92;;;10.55;;
38683;SDS011;24910;53.248;-6.134;2023-04-09T09:38:57;29.20;;;10.68;;
38683;SDS011;24910;53.248;-6.134;2023-04-09T09:41:29;29.65;;;10.90;;
38683;SDS011;24910;53.248;-6.134;2023-04-09T09:43:59;32.10;;;11.98;;
38683;SDS011;24910;53.248;-6.134;2023-04-09T09:46:29;27.08;;;11.68;;
38683;SDS011;24910;53.248;-6.134;2023-04-09T09:49:01;30.45;;;11.60;;
38683;SDS011;24910;53.248;-6.134;2023-04-09T09:51:31;31.67;;;12.05;;
38683;SDS011;24910;53.248;-6.134;2023-04-09T09:54:03;33.53;;;12.15;;
38683;SDS011;24910;53.248;-6.134;2023-04-09T09:56:36;30.90;;;11.93;;
38683;SDS011;24910;53.248;-6.134;2023-04-09T09:59:12;35.63;;;12.70;;
38683;SDS011;24910;53.248;-6.134;2023-04-09T10:01:50;38.20;;;13.70;;
38683;SDS011;24910;53.248;-6.134;2023-04-09T10:04:24;33.17;;;12.70;;
38683;SDS011;24910;53.248;-6.134;2023-04-09T10:06:56;31.38;;;12.52;;
38683;SDS011;24910;53.248;-6.134;2023-04-09T10:09:27;34.28;;;13.05;;
38683;SDS011;24910;53.248;-6.134;2023-04-09T10:11:56;34.30;;;14.52;;
38683;SDS011;24910;53.248;-6.134;2023-04-09T10:14:28;29.95;;;13.30;;
38683;SDS011;24910;53.248;-6.134;2023-04-09T10:16:59;31.35;;;13.57;;
38683;SDS011;24910;53.248;-6.134;2023-04-09T10:19:30;36.38;;;15.00;;
38683;SDS011;24910;53.248;-6.134;2023-04-09T10:22:04;36.05;;;13.93;;
38683;SDS011;24910;53.248;-6.134;2023-04-09T10:24:37;32.97;;;14.10;;
38683;SDS011;24910;53.248;-6.134;2023-04-09T10:27:10;46.03;;;15.38;;
38683;SDS011;24910;53.248;-6.134;2023-04-09T10:29:43;39.10;;;16.80;;
38683;SDS011;24910;53.248;-6.134;2023-04-09T10:32:17;35.92;;;13.95;;
38683;SDS011;24910;53.248;-6.134;2023-04-09T10:34:55;36.33;;;13.90;;
38683;SDS011;24910;53.248;-6.134;2023-04-09T10:37:26;40.00;;;14.50;;
38683;SDS011;24910;53.248;-6.134;2023-04-09T10:39:56;35.83;;;14.82;;
38683;SDS011;24910;53.248;-6.134;2023-04-09T10:42:29;40.63;;;15.20;;
38683;SDS011;24910;53.248;-6.134;2023-04-09T10:45:03;45.83;;;16.38;;
38683;SDS011;24910;53.248;-6.134;2023-04-09T10:47:36;41.63;;;16.60;;
38683;SDS011;24910;53.248;-6.134;2023-04-09T10:50:13;39.40;;;15.85;;
38683;SDS011;24910;53.248;-6.134;2023-04-09T10:52:44;46.35;;;16.55;;
38683;SDS011;24910;53.248;-6.134;2023-04-09T10:55:29;39.15;;;15.32;;
38683;SDS011;24910;53.248;-6.134;2023-04-09T10:58:03;35.28;;;14.70;;
38683;SDS011;24910;53.248;-6.134;2023-04-09T11:00:38;39.67;;;15.82;;
38683;SDS011;24910;53.248;-6.134;2023-04-09T11:03:20;38.17;;;15.73;;
38683;SDS011;24910;53.248;-6.134;2023-04-09T11:05:51;31.80;;;14.35;;
38683;SDS011;24910;53.248;-6.134;2023-04-09T11:08:27;41.00;;;15.00;;
38683;SDS011;24910;53.248;-6.134;2023-04-09T11:10:57;32.63;;;14.30;;
38683;SDS011;24910;53.248;-6.134;2023-04-09T11:13:28;37.23;;;15.10;;
38683;SDS011;24910;53.248;-6.134;2023-04-09T11:15:58;37.53;;;14.80;;
38683;SDS011;24910;53.248;-6.134;2023-04-09T11:18:31;35.65;;;13.65;;
38683;SDS011;24910;53.248;-6.134;2023-04-09T11:21:10;35.72;;;13.85;;
38683;SDS011;24910;53.248;-6.134;2023-04-09T11:23:39;37.40;;;14.05;;
38683;SDS011;24910;53.248;-6.134;2023-04-09T11:26:09;40.00;;;13.65;;
38683;SDS011;24910;53.248;-6.134;2023-04-09T11:28:39;32.15;;;12.95;;
38683;SDS011;24910;53.248;-6.134;2023-04-09T11:31:10;34.70;;;13.60;;
38683;SDS011;24910;53.248;-6.134;2023-04-09T11:33:40;38.88;;;12.60;;
38683;SDS011;24910;53.248;-6.134;2023-04-09T11:36:13;31.38;;;12.52;;
38683;SDS011;24910;53.248;-6.134;2023-04-09T11:38:42;30.88;;;13.30;;
38683;SDS011;24910;53.248;-6.134;2023-04-09T11:41:11;32.88;;;12.07;;
38683;SDS011;24910;53.248;-6.134;2023-04-09T11:43:40;26.42;;;11.30;;
38683;SDS011;24910;53.248;-6.134;2023-04-09T11:46:10;36.38;;;12.68;;
38683;SDS011;24910;53.248;-6.134;2023-04-09T11:48:40;35.83;;;11.77;;
38683;SDS011;24910;53.248;-6.134;2023-04-09T11:51:09;28.33;;;11.35;;
38683;SDS011;24910;53.248;-6.134;2023-04-09T11:53:39;32.53;;;12.52;;
38683;SDS011;24910;53.248;-6.134;2023-04-09T11:56:08;32.95;;;11.55;;
38683;SDS011;24910;53.248;-6.134;2023-04-09T11:58:38;25.42;;;11.13;;
38683;SDS011;24910;53.248;-6.134;2023-04-09T12:01:13;33.15;;;11.23;;
38683;SDS011;24910;53.248;-6.134;2023-04-09T12:03:44;33.67;;;11.57;;
38683;SDS011;24910;53.248;-6.134;2023-04-09T12:06:20;34.45;;;12.35;;
38683;SDS011;24910;53.248;-6.134;2023-04-09T12:08:51;27.88;;;11.23;;
38683;SDS011;24910;53.248;-6.134;2023-04-09T12:11:25;36.55;;;11.80;;
38683;SDS011;24910;53.248;-6.134;2023-04-09T12:13:59;29.48;;;10.75;;
38683;SDS011;24910;53.248;-6.134;2023-04-09T12:16:29;31.73;;;10.80;;
38683;SDS011;24910;53.248;-6.134;2023-04-09T12:19:01;35.10;;;10.82;;
38683;SDS011;24910;53.248;-6.134;2023-04-09T12:24:15;28.55;;;10.43;;
38683;SDS011;24910;53.248;-6.134;2023-04-09T12:26:46;34.75;;;10.48;;
38683;SDS011;24910;53.248;-6.134;2023-04-09T12:29:16;36.92;;;10.15;;
38683;SDS011;24910;53.248;-6.134;2023-04-09T12:31:46;32.40;;;10.23;;
38683;SDS011;24910;53.248;-6.134;2023-04-09T12:34:17;32.55;;;10.38;;
38683;SDS011;24910;53.248;-6.134;2023-04-09T12:36:46;33.03;;;10.10;;
38683;SDS011;24910;53.248;-6.134;2023-04-09T12:39:15;37.75;;;10.18;;
38683;SDS011;24910;53.248;-6.134;2023-04-09T12:41:44;33.90;;;10.68;;
38683;SDS011;24910;53.248;-6.134;2023-04-09T12:44:13;32.67;;;10.73;;
38683;SDS011;24910;53.248;-6.134;2023-04-09T12:46:42;31.50;;;10.70;;
38683;SDS011;24910;53.248;-6.134;2023-04-09T12:49:12;30.40;;;9.50;;
38683;SDS011;24910;53.248;-6.134;2023-04-09T12:51:42;32.72;;;10.10;;
38683;SDS011;24910;53.248;-6.134;2023-04-09T12:54:12;36.67;;;9.75;;
38683;SDS011;24910;53.248;-6.134;2023-04-09T12:56:41;30.08;;;9.50;;
38683;SDS011;24910;53.248;-6.134;2023-04-09T12:59:10;37.20;;;10.20;;
38683;SDS011;24910;53.248;-6.134;2023-04-09T13:01:39;29.63;;;8.98;;
38683;SDS011;24910;53.248;-6.134;2023-04-09T13:04:10;31.17;;;10.07;;
38683;SDS011;24910;53.248;-6.134;2023-04-09T13:06:42;27.75;;;9.95;;
38683;SDS011;24910;53.248;-6.134;2023-04-09T13:09:12;27.98;;;9.48;;
38683;SDS011;24910;53.248;-6.134;2023-04-09T13:11:41;27.00;;;9.52;;
38683;SDS011;24910;53.248;-6.134;2023-04-09T13:14:10;33.22;;;10.23;;
38683;SDS011;24910;53.248;-6.134;2023-04-09T13:16:40;30.13;;;9.60;;
38683;SDS011;24910;53.248;-6.134;2023-04-09T13:19:09;34.70;;;9.82;;
38683;SDS011;24910;53.248;-6.134;2023-04-09T13:21:38;28.27;;;9.95;;
38683;SDS011;24910;53.248;-6.134;2023-04-09T13:24:09;40.10;;;11.68;;
38683;SDS011;24910;53.248;-6.134;2023-04-09T13:26:38;27.13;;;9.95;;
38683;SDS011;24910;53.248;-6.134;2023-04-09T13:29:08;30.08;;;10.25;;
38683;SDS011;24910;53.248;-6.134;2023-04-09T13:31:37;34.70;;;10.85;;
38683;SDS011;24910;53.248;-6.134;2023-04-09T13:34:06;34.00;;;11.20;;
38683;SDS011;24910;53.248;-6.134;2023-04-09T13:36:35;37.65;;;11.45;;
38683;SDS011;24910;53.248;-6.134;2023-04-09T13:39:04;33.63;;;11.57;;
38683;SDS011;24910;53.248;-6.134;2023-04-09T13:41:35;31.80;;;11.02;;
38683;SDS011;24910;53.248;-6.134;2023-04-09T13:44:04;37.87;;;11.87;;
38683;SDS011;24910;53.248;-6.134;2023-04-09T13:46:33;30.17;;;11.02;;
38683;SDS011;24910;53.248;-6.134;2023-04-09T13:49:02;35.47;;;10.95;;
38683;SDS011;24910;53.248;-6.134;2023-04-09T13:51:32;43.20;;;11.50;;
38683;SDS011;24910;53.248;-6.134;2023-04-09T13:54:01;34.85;;;11.10;;
38683;SDS011;24910;53.248;-6.134;2023-04-09T13:56:32;30.13;;;11.03;;
38683;SDS011;24910;53.248;-6.134;2023-04-09T13:59:02;38.13;;;12.00;;
38683;SDS011;24910;53.248;-6.134;2023-04-09T14:01:32;41.47;;;12.27;;
38683;SDS011;24910;53.248;-6.134;2023-04-09T14:04:02;33.30;;;11.75;;
38683;SDS011;24910;53.248;-6.134;2023-04-09T14:06:31;37.92;;;12.35;;
38683;SDS011;24910;53.248;-6.134;2023-04-09T14:09:00;39.90;;;11.52;;
38683;SDS011;24910;53.248;-6.134;2023-04-09T14:11:29;32.25;;;11.27;;
38683;SDS011;24910;53.248;-6.134;2023-04-09T14:13:58;41.20;;;12.63;;
38683;SDS011;24910;53.248;-6.134;2023-04-09T14:16:29;37.95;;;11.45;;
38683;SDS011;24910;53.248;-6.134;2023-04-09T14:18:58;33.10;;;11.15;;
38683;SDS011;24910;53.248;-6.134;2023-04-09T14:21:27;30.35;;;10.93;;
38683;SDS011;24910;53.248;-6.134;2023-04-09T14:23:56;37.80;;;11.25;;
38683;SDS011;24910;53.248;-6.134;2023-04-09T14:26:26;33.05;;;10.77;;
38683;SDS011;24910;53.248;-6.134;2023-04-09T14:28:55;40.53;;;13.70;;
38683;SDS011;24910;53.248;-6.134;2023-04-09T14:31:24;32.00;;;11.02;;
38683;SDS011;24910;53.248;-6.134;2023-04-09T14:33:55;32.60;;;10.88;;
38683;SDS011;24910;53.248;-6.134;2023-04-09T14:36:25;32.53;;;10.95;;
38683;SDS011;24910;53.248;-6.134;2023-04-09T14:38:54;34.60;;;10.98;;
38683;SDS011;24910;53.248;-6.134;2023-04-09T14:41:24;31.08;;;11.27;;
38683;SDS011;24910;53.248;-6.134;2023-04-09T14:43:53;35.25;;;10.10;;